sensor_id;sensor_type;location;lat;lon;timestamp;pressure;altitude;pressure_sealevel;temperature;humidity
54248;BME280;40161;39.768;2.722;2023-06-26T00:01:17;101477.97;;;24.22;68.21
54248;BME280;40161;39.768;2.722;2023-06-26T00:03:46;101479.78;;;24.28;69.52
54248;BME280;40161;39.768;2.722;2023-06-26T00:06:12;101479.56;;;24.52;68.98
54248;BME280;40161;39.768;2.722;2023-06-26T00:08:38;101474.34;;;24.79;68.21
54248;BME280;40161;39.768;2.722;2023-06-26T00:11:03;101485.44;;;25.12;67.33
54248;BME280;40161;39.768;2.722;2023-06-26T00:13:29;101461.81;;;25.22;66.67
54248;BME280;40161;39.768;2.722;2023-06-26T00:15:55;101470.34;;;25.31;65.40
54248;BME280;40161;39.768;2.722;2023-06-26T00:18:20;101464.50;;;25.00;65.91
54248;BME280;40161;39.768;2.722;2023-06-26T00:20:46;101458.66;;;24.82;67.59
54248;BME280;40161;39.768;2.722;2023-06-26T00:23:12;101461.31;;;24.31;69.21
54248;BME280;40161;39.768;2.722;2023-06-26T00:25:38;101452.34;;;24.07;69.96
54248;BME280;40161;39.768;2.722;2023-06-26T00:28:04;101455.91;;;24.24;70.11
54248;BME280;40161;39.768;2.722;2023-06-26T00:30:29;101453.41;;;24.26;70.84
54248;BME280;40161;39.768;2.722;2023-06-26T00:32:55;101454.53;;;24.45;69.65
54248;BME280;40161;39.768;2.722;2023-06-26T00:35:20;101446.25;;;24.54;68.81
54248;BME280;40161;39.768;2.722;2023-06-26T00:37:46;101449.94;;;24.22;71.47
54248;BME280;40161;39.768;2.722;2023-06-26T00:40:12;101418.66;;;23.94;72.57
54248;BME280;40161;39.768;2.722;2023-06-26T00:42:38;101435.25;;;23.56;74.52
54248;BME280;40161;39.768;2.722;2023-06-26T00:45:03;101424.28;;;23.12;76.53
54248;BME280;40161;39.768;2.722;2023-06-26T00:47:29;101429.09;;;23.12;76.89
54248;BME280;40161;39.768;2.722;2023-06-26T00:49:55;101422.38;;;23.26;75.75
54248;BME280;40161;39.768;2.722;2023-06-26T00:52:21;101420.28;;;23.46;74.39
54248;BME280;40161;39.768;2.722;2023-06-26T00:54:47;101423.53;;;23.44;74.88
54248;BME280;40161;39.768;2.722;2023-06-26T00:57:13;101441.03;;;23.65;73.92
54248;BME280;40161;39.768;2.722;2023-06-26T00:59:39;101455.03;;;23.65;73.81
54248;BME280;40161;39.768;2.722;2023-06-26T01:02:04;101464.72;;;23.60;74.03
54248;BME280;40161;39.768;2.722;2023-06-26T01:04:31;101461.72;;;23.71;75.38
54248;BME280;40161;39.768;2.722;2023-06-26T01:06:59;101452.75;;;23.92;72.21
54248;BME280;40161;39.768;2.722;2023-06-26T01:09:25;101464.75;;;24.22;72.42
54248;BME280;40161;39.768;2.722;2023-06-26T01:11:51;101477.84;;;24.42;72.12
54248;BME280;40161;39.768;2.722;2023-06-26T01:14:17;101481.63;;;24.77;70.59
54248;BME280;40161;39.768;2.722;2023-06-26T01:16:43;101453.47;;;24.68;68.84
54248;BME280;40161;39.768;2.722;2023-06-26T01:19:20;101480.19;;;24.72;69.41
54248;BME280;40161;39.768;2.722;2023-06-26T01:21:54;101486.38;;;24.80;69.07
54248;BME280;40161;39.768;2.722;2023-06-26T01:24:22;101480.72;;;24.54;69.43
54248;BME280;40161;39.768;2.722;2023-06-26T01:26:53;101491.94;;;24.54;70.58
54248;BME280;40161;39.768;2.722;2023-06-26T01:29:19;101475.19;;;24.51;70.85
54248;BME280;40161;39.768;2.722;2023-06-26T01:31:47;101479.94;;;24.67;69.83
54248;BME280;40161;39.768;2.722;2023-06-26T01:34:18;101459.88;;;24.68;69.35
54248;BME280;40161;39.768;2.722;2023-06-26T01:36:44;101462.25;;;24.82;69.30
54248;BME280;40161;39.768;2.722;2023-06-26T01:39:15;101463.56;;;24.65;71.13
54248;BME280;40161;39.768;2.722;2023-06-26T01:41:41;101455.47;;;24.54;70.42
54248;BME280;40161;39.768;2.722;2023-06-26T01:49:41;101464.47;;;24.33;72.62
54248;BME280;40161;39.768;2.722;2023-06-26T01:54:47;101451.38;;;24.43;71.15
54248;BME280;40161;39.768;2.722;2023-06-26T01:57:15;101463.22;;;24.63;70.59
54248;BME280;40161;39.768;2.722;2023-06-26T01:59:46;101475.00;;;24.58;70.59
54248;BME280;40161;39.768;2.722;2023-06-26T02:02:12;101450.16;;;23.69;74.45
54248;BME280;40161;39.768;2.722;2023-06-26T02:04:38;101446.19;;;23.17;77.16
54248;BME280;40161;39.768;2.722;2023-06-26T02:07:03;101465.97;;;23.27;77.87
54248;BME280;40161;39.768;2.722;2023-06-26T02:09:29;101431.06;;;23.31;77.21
54248;BME280;40161;39.768;2.722;2023-06-26T02:11:54;101466.66;;;23.96;76.12
54248;BME280;40161;39.768;2.722;2023-06-26T02:14:20;101464.75;;;24.22;72.67
54248;BME280;40161;39.768;2.722;2023-06-26T02:16:45;101467.91;;;23.95;73.57
54248;BME280;40161;39.768;2.722;2023-06-26T02:19:11;101461.84;;;23.80;74.53
54248;BME280;40161;39.768;2.722;2023-06-26T02:21:36;101463.31;;;24.01;73.61
54248;BME280;40161;39.768;2.722;2023-06-26T02:24:04;101464.28;;;23.95;74.20
54248;BME280;40161;39.768;2.722;2023-06-26T02:26:30;101459.84;;;23.64;75.88
54248;BME280;40161;39.768;2.722;2023-06-26T02:28:55;101467.53;;;23.60;76.71
54248;BME280;40161;39.768;2.722;2023-06-26T02:31:21;101460.59;;;23.98;74.16
54248;BME280;40161;39.768;2.722;2023-06-26T02:33:46;101461.13;;;24.09;74.66
54248;BME280;40161;39.768;2.722;2023-06-26T02:36:12;101456.94;;;24.30;74.33
54248;BME280;40161;39.768;2.722;2023-06-26T02:38:37;101458.91;;;24.46;73.98
54248;BME280;40161;39.768;2.722;2023-06-26T02:41:03;101441.31;;;24.58;72.71
54248;BME280;40161;39.768;2.722;2023-06-26T02:43:29;101449.41;;;24.69;70.91
54248;BME280;40161;39.768;2.722;2023-06-26T02:45:54;101444.78;;;24.49;71.67
54248;BME280;40161;39.768;2.722;2023-06-26T02:48:20;101434.28;;;24.08;73.85
54248;BME280;40161;39.768;2.722;2023-06-26T02:50:45;101436.66;;;24.09;73.58
54248;BME280;40161;39.768;2.722;2023-06-26T02:53:12;101436.13;;;24.14;73.83
54248;BME280;40161;39.768;2.722;2023-06-26T02:55:37;101432.31;;;24.21;74.54
54248;BME280;40161;39.768;2.722;2023-06-26T02:58:03;101443.81;;;24.39;73.13
54248;BME280;40161;39.768;2.722;2023-06-26T03:00:28;101430.09;;;24.29;72.51
54248;BME280;40161;39.768;2.722;2023-06-26T03:02:55;101436.59;;;24.26;73.23
54248;BME280;40161;39.768;2.722;2023-06-26T03:05:21;101430.97;;;24.26;72.70
54248;BME280;40161;39.768;2.722;2023-06-26T03:07:46;101431.91;;;24.23;72.39
54248;BME280;40161;39.768;2.722;2023-06-26T03:10:12;101417.91;;;23.77;74.50
54248;BME280;40161;39.768;2.722;2023-06-26T03:12:37;101429.97;;;23.90;75.32
54248;BME280;40161;39.768;2.722;2023-06-26T03:15:03;101421.31;;;24.14;74.42
54248;BME280;40161;39.768;2.722;2023-06-26T03:17:29;101429.63;;;24.17;72.48
54248;BME280;40161;39.768;2.722;2023-06-26T03:19:54;101440.06;;;24.46;70.80
54248;BME280;40161;39.768;2.722;2023-06-26T03:22:20;101425.78;;;23.01;78.47
54248;BME280;40161;39.768;2.722;2023-06-26T03:24:45;101425.16;;;22.73;81.11
54248;BME280;40161;39.768;2.722;2023-06-26T03:27:11;101420.41;;;22.90;80.73
54248;BME280;40161;39.768;2.722;2023-06-26T03:29:37;101424.13;;;23.52;79.31
54248;BME280;40161;39.768;2.722;2023-06-26T03:32:02;101422.03;;;23.73;75.00
54248;BME280;40161;39.768;2.722;2023-06-26T03:34:28;101396.63;;;23.63;75.25
54248;BME280;40161;39.768;2.722;2023-06-26T03:36:53;101416.94;;;23.84;73.88
54248;BME280;40161;39.768;2.722;2023-06-26T03:39:19;101416.72;;;23.91;74.16
54248;BME280;40161;39.768;2.722;2023-06-26T03:41:45;101410.69;;;24.22;71.92
54248;BME280;40161;39.768;2.722;2023-06-26T03:44:10;101409.06;;;24.08;71.73
54248;BME280;40161;39.768;2.722;2023-06-26T03:46:36;101394.16;;;24.40;69.94
54248;BME280;40161;39.768;2.722;2023-06-26T03:49:01;101391.41;;;24.24;69.91
54248;BME280;40161;39.768;2.722;2023-06-26T03:51:27;101380.09;;;23.69;72.47
54248;BME280;40161;39.768;2.722;2023-06-26T03:53:52;101379.97;;;23.89;73.02
54248;BME280;40161;39.768;2.722;2023-06-26T03:56:18;101378.56;;;24.10;71.80
54248;BME280;40161;39.768;2.722;2023-06-26T03:58:43;101374.66;;;23.78;71.46
54248;BME280;40161;39.768;2.722;2023-06-26T04:01:09;101371.56;;;23.89;70.09
54248;BME280;40161;39.768;2.722;2023-06-26T04:03:34;101372.28;;;24.06;70.88
54248;BME280;40161;39.768;2.722;2023-06-26T04:06:00;101374.91;;;24.26;70.64
54248;BME280;40161;39.768;2.722;2023-06-26T04:08:25;101363.16;;;24.31;71.63
54248;BME280;40161;39.768;2.722;2023-06-26T04:10:53;101354.94;;;24.24;67.63
54248;BME280;40161;39.768;2.722;2023-06-26T04:13:20;101345.78;;;23.94;66.85
54248;BME280;40161;39.768;2.722;2023-06-26T04:15:46;101348.97;;;23.80;67.17
54248;BME280;40161;39.768;2.722;2023-06-26T04:18:11;101333.69;;;23.97;69.48
54248;BME280;40161;39.768;2.722;2023-06-26T04:21:03;101337.00;;;24.34;69.75
54248;BME280;40161;39.768;2.722;2023-06-26T04:23:27;101340.63;;;24.60;68.98
54248;BME280;40161;39.768;2.722;2023-06-26T04:25:52;101335.59;;;24.42;65.55
54248;BME280;40161;39.768;2.722;2023-06-26T04:28:18;101333.63;;;24.39;67.66
54248;BME280;40161;39.768;2.722;2023-06-26T04:30:43;101327.84;;;24.46;67.15
54248;BME280;40161;39.768;2.722;2023-06-26T04:33:09;101323.88;;;23.60;66.65
54248;BME280;40161;39.768;2.722;2023-06-26T04:35:37;101322.00;;;23.40;67.94
54248;BME280;40161;39.768;2.722;2023-06-26T04:38:02;101337.94;;;23.43;69.38
54248;BME280;40161;39.768;2.722;2023-06-26T04:40:28;101327.84;;;23.46;69.69
54248;BME280;40161;39.768;2.722;2023-06-26T04:42:53;101312.25;;;23.61;68.50
54248;BME280;40161;39.768;2.722;2023-06-26T04:45:19;101317.81;;;23.78;67.22
54248;BME280;40161;39.768;2.722;2023-06-26T04:47:44;101323.13;;;22.61;74.87
54248;BME280;40161;39.768;2.722;2023-06-26T04:50:10;101329.88;;;22.27;78.78
54248;BME280;40161;39.768;2.722;2023-06-26T04:52:35;101328.09;;;22.54;77.68
54248;BME280;40161;39.768;2.722;2023-06-26T04:55:01;101313.44;;;22.82;75.67
54248;BME280;40161;39.768;2.722;2023-06-26T04:57:26;101328.03;;;23.39;74.23
54248;BME280;40161;39.768;2.722;2023-06-26T04:59:52;101332.06;;;23.83;71.64
54248;BME280;40161;39.768;2.722;2023-06-26T05:02:17;101342.78;;;23.72;68.86
54248;BME280;40161;39.768;2.722;2023-06-26T05:04:43;101345.97;;;22.76;74.47
54248;BME280;40161;39.768;2.722;2023-06-26T05:07:08;101340.00;;;22.58;76.81
54248;BME280;40161;39.768;2.722;2023-06-26T05:09:34;101340.88;;;22.71;75.97
54248;BME280;40161;39.768;2.722;2023-06-26T05:12:01;101349.84;;;22.98;74.51
54248;BME280;40161;39.768;2.722;2023-06-26T05:14:27;101350.44;;;23.22;72.56
54248;BME280;40161;39.768;2.722;2023-06-26T05:16:53;101359.16;;;23.74;72.18
54248;BME280;40161;39.768;2.722;2023-06-26T05:19:18;101347.63;;;24.13;70.03
54248;BME280;40161;39.768;2.722;2023-06-26T05:21:44;101360.59;;;24.36;69.22
54248;BME280;40161;39.768;2.722;2023-06-26T05:24:12;101360.84;;;24.42;68.54
54248;BME280;40161;39.768;2.722;2023-06-26T05:26:38;101364.38;;;24.30;66.38
54248;BME280;40161;39.768;2.722;2023-06-26T05:29:04;101371.41;;;24.22;67.22
54248;BME280;40161;39.768;2.722;2023-06-26T05:31:32;101366.47;;;24.13;67.70
54248;BME280;40161;39.768;2.722;2023-06-26T05:34:02;101371.72;;;23.20;72.33
54248;BME280;40161;39.768;2.722;2023-06-26T05:36:30;101367.31;;;22.86;75.57
54248;BME280;40161;39.768;2.722;2023-06-26T05:38:58;101365.06;;;22.45;78.58
54248;BME280;40161;39.768;2.722;2023-06-26T05:41:24;101368.34;;;22.76;77.11
54248;BME280;40161;39.768;2.722;2023-06-26T05:43:49;101364.47;;;23.06;76.25
54248;BME280;40161;39.768;2.722;2023-06-26T05:46:15;101362.16;;;23.50;74.37
54248;BME280;40161;39.768;2.722;2023-06-26T05:48:41;101378.63;;;23.93;71.22
54248;BME280;40161;39.768;2.722;2023-06-26T05:51:07;101369.81;;;24.08;70.05
54248;BME280;40161;39.768;2.722;2023-06-26T05:53:33;101391.53;;;24.33;68.95
54248;BME280;40161;39.768;2.722;2023-06-26T05:55:59;101392.53;;;24.39;68.61
54248;BME280;40161;39.768;2.722;2023-06-26T05:58:26;101394.50;;;24.42;66.97
54248;BME280;40161;39.768;2.722;2023-06-26T06:00:54;101394.06;;;24.56;67.11
54248;BME280;40161;39.768;2.722;2023-06-26T06:03:20;101397.56;;;24.73;65.75
54248;BME280;40161;39.768;2.722;2023-06-26T06:05:46;101391.03;;;24.22;69.70
54248;BME280;40161;39.768;2.722;2023-06-26T06:08:11;101378.56;;;24.52;68.08
54248;BME280;40161;39.768;2.722;2023-06-26T06:10:37;101410.00;;;24.59;68.88
54248;BME280;40161;39.768;2.722;2023-06-26T06:13:03;101402.38;;;24.73;68.97
54248;BME280;40161;39.768;2.722;2023-06-26T06:15:29;101414.88;;;24.84;68.28
54248;BME280;40161;39.768;2.722;2023-06-26T06:17:54;101389.69;;;24.81;68.80
54248;BME280;40161;39.768;2.722;2023-06-26T06:20:20;101409.59;;;24.99;68.41
54248;BME280;40161;39.768;2.722;2023-06-26T06:22:45;101409.00;;;25.04;68.70
54248;BME280;40161;39.768;2.722;2023-06-26T06:25:11;101420.13;;;25.08;67.61
54248;BME280;40161;39.768;2.722;2023-06-26T06:27:36;101406.44;;;25.10;67.99
54248;BME280;40161;39.768;2.722;2023-06-26T06:30:02;101421.47;;;25.29;64.87
54248;BME280;40161;39.768;2.722;2023-06-26T06:32:28;101423.28;;;25.36;63.31
54248;BME280;40161;39.768;2.722;2023-06-26T06:34:53;101426.31;;;25.28;62.75
54248;BME280;40161;39.768;2.722;2023-06-26T06:37:19;101424.41;;;25.25;62.92
54248;BME280;40161;39.768;2.722;2023-06-26T06:39:44;101436.09;;;25.37;63.36
54248;BME280;40161;39.768;2.722;2023-06-26T06:42:10;101448.44;;;25.39;63.42
54248;BME280;40161;39.768;2.722;2023-06-26T06:44:35;101442.13;;;25.48;64.75
54248;BME280;40161;39.768;2.722;2023-06-26T06:47:01;101431.53;;;25.65;68.72
54248;BME280;40161;39.768;2.722;2023-06-26T06:49:27;101411.34;;;25.57;64.80
54248;BME280;40161;39.768;2.722;2023-06-26T06:51:52;101434.53;;;25.83;65.20
54248;BME280;40161;39.768;2.722;2023-06-26T06:54:18;101412.63;;;25.78;66.22
54248;BME280;40161;39.768;2.722;2023-06-26T06:56:44;101430.56;;;25.93;64.03
54248;BME280;40161;39.768;2.722;2023-06-26T06:59:10;101426.50;;;25.94;62.60
54248;BME280;40161;39.768;2.722;2023-06-26T07:01:36;101419.97;;;25.97;61.33
54248;BME280;40161;39.768;2.722;2023-06-26T07:04:01;101414.94;;;25.92;58.82
54248;BME280;40161;39.768;2.722;2023-06-26T07:06:29;101400.94;;;26.01;55.29
54248;BME280;40161;39.768;2.722;2023-06-26T07:08:54;101399.31;;;26.13;54.59
54248;BME280;40161;39.768;2.722;2023-06-26T07:11:20;101428.75;;;26.43;53.71
54248;BME280;40161;39.768;2.722;2023-06-26T07:13:45;101420.78;;;26.64;53.80
54248;BME280;40161;39.768;2.722;2023-06-26T07:16:11;101426.63;;;26.79;53.82
54248;BME280;40161;39.768;2.722;2023-06-26T07:18:38;101415.69;;;26.81;54.95
54248;BME280;40161;39.768;2.722;2023-06-26T07:21:03;101410.84;;;26.90;53.77
54248;BME280;40161;39.768;2.722;2023-06-26T07:23:29;101430.00;;;27.05;54.73
54248;BME280;40161;39.768;2.722;2023-06-26T07:25:55;101384.59;;;26.84;53.20
54248;BME280;40161;39.768;2.722;2023-06-26T07:28:21;101414.78;;;26.93;55.32
54248;BME280;40161;39.768;2.722;2023-06-26T07:30:46;101427.44;;;27.19;53.99
54248;BME280;40161;39.768;2.722;2023-06-26T07:33:12;101423.84;;;27.28;53.36
54248;BME280;40161;39.768;2.722;2023-06-26T07:35:37;101428.88;;;27.42;52.35
54248;BME280;40161;39.768;2.722;2023-06-26T07:38:03;101425.72;;;27.22;54.25
54248;BME280;40161;39.768;2.722;2023-06-26T07:40:29;101434.13;;;27.13;53.14
54248;BME280;40161;39.768;2.722;2023-06-26T07:42:54;101438.56;;;27.23;52.90
54248;BME280;40161;39.768;2.722;2023-06-26T07:45:20;101423.13;;;27.06;53.85
54248;BME280;40161;39.768;2.722;2023-06-26T07:47:45;101413.34;;;27.19;53.98
54248;BME280;40161;39.768;2.722;2023-06-26T07:50:11;101426.06;;;27.33;55.85
54248;BME280;40161;39.768;2.722;2023-06-26T07:52:37;101425.25;;;27.24;58.06
54248;BME280;40161;39.768;2.722;2023-06-26T07:55:03;101433.09;;;27.38;46.99
54248;BME280;40161;39.768;2.722;2023-06-26T07:57:29;101421.25;;;27.61;46.42
54248;BME280;40161;39.768;2.722;2023-06-26T07:59:55;101431.78;;;27.79;46.89
54248;BME280;40161;39.768;2.722;2023-06-26T08:02:21;101428.28;;;27.66;49.09
54248;BME280;40161;39.768;2.722;2023-06-26T08:04:47;101430.31;;;27.56;49.17
54248;BME280;40161;39.768;2.722;2023-06-26T08:07:12;101437.38;;;27.70;45.20
54248;BME280;40161;39.768;2.722;2023-06-26T08:09:39;101428.19;;;28.06;44.96
54248;BME280;40161;39.768;2.722;2023-06-26T08:12:05;101397.59;;;27.50;47.47
54248;BME280;40161;39.768;2.722;2023-06-26T08:14:30;101433.53;;;27.95;42.87
54248;BME280;40161;39.768;2.722;2023-06-26T08:16:57;101435.72;;;27.91;42.31
54248;BME280;40161;39.768;2.722;2023-06-26T08:19:22;101424.25;;;28.04;43.57
54248;BME280;40161;39.768;2.722;2023-06-26T08:21:48;101431.16;;;28.12;42.56
54248;BME280;40161;39.768;2.722;2023-06-26T08:24:14;101430.22;;;28.43;48.90
54248;BME280;40161;39.768;2.722;2023-06-26T08:26:47;101435.84;;;28.43;50.78
54248;BME280;40161;39.768;2.722;2023-06-26T08:29:13;101430.03;;;28.28;50.51
54248;BME280;40161;39.768;2.722;2023-06-26T08:31:40;101435.53;;;28.22;51.17
54248;BME280;40161;39.768;2.722;2023-06-26T08:34:06;101449.34;;;28.20;51.46
54248;BME280;40161;39.768;2.722;2023-06-26T08:36:31;101456.19;;;28.37;50.68
54248;BME280;40161;39.768;2.722;2023-06-26T08:38:57;101446.78;;;28.31;49.92
54248;BME280;40161;39.768;2.722;2023-06-26T08:41:23;101446.97;;;28.28;49.95
54248;BME280;40161;39.768;2.722;2023-06-26T08:43:49;101435.84;;;28.24;48.79
54248;BME280;40161;39.768;2.722;2023-06-26T08:46:19;101436.78;;;28.30;49.40
54248;BME280;40161;39.768;2.722;2023-06-26T08:48:49;101448.69;;;28.44;49.92
54248;BME280;40161;39.768;2.722;2023-06-26T08:51:21;101433.31;;;28.35;48.84
54248;BME280;40161;39.768;2.722;2023-06-26T08:56:22;101446.16;;;28.55;49.29
54248;BME280;40161;39.768;2.722;2023-06-26T08:58:49;101437.69;;;28.55;48.46
54248;BME280;40161;39.768;2.722;2023-06-26T09:01:15;101443.50;;;28.60;49.07
54248;BME280;40161;39.768;2.722;2023-06-26T09:03:40;101454.75;;;28.70;47.46
54248;BME280;40161;39.768;2.722;2023-06-26T09:06:09;101430.16;;;28.61;49.14
54248;BME280;40161;39.768;2.722;2023-06-26T09:08:35;101447.50;;;28.78;49.37
54248;BME280;40161;39.768;2.722;2023-06-26T09:11:00;101458.66;;;28.72;49.30
54248;BME280;40161;39.768;2.722;2023-06-26T09:13:29;101461.81;;;28.65;49.71
54248;BME280;40161;39.768;2.722;2023-06-26T09:15:55;101467.47;;;28.65;51.66
54248;BME280;40161;39.768;2.722;2023-06-26T09:18:21;101482.97;;;28.70;50.82
54248;BME280;40161;39.768;2.722;2023-06-26T09:20:47;101471.28;;;28.53;49.79
54248;BME280;40161;39.768;2.722;2023-06-26T09:23:13;101474.41;;;28.46;46.10
54248;BME280;40161;39.768;2.722;2023-06-26T09:25:40;101478.16;;;28.52;48.22
54248;BME280;40161;39.768;2.722;2023-06-26T09:28:06;101478.16;;;28.61;44.67
54248;BME280;40161;39.768;2.722;2023-06-26T09:30:35;101467.34;;;28.50;46.52
54248;BME280;40161;39.768;2.722;2023-06-26T09:33:20;101488.00;;;28.66;44.56
54248;BME280;40161;39.768;2.722;2023-06-26T09:35:46;101483.78;;;28.61;44.02
54248;BME280;40161;39.768;2.722;2023-06-26T09:38:13;101493.16;;;28.76;45.02
54248;BME280;40161;39.768;2.722;2023-06-26T09:40:40;101495.19;;;28.85;44.02
54248;BME280;40161;39.768;2.722;2023-06-26T09:43:07;101480.03;;;28.64;43.27
54248;BME280;40161;39.768;2.722;2023-06-26T09:45:34;101498.00;;;28.85;44.15
54248;BME280;40161;39.768;2.722;2023-06-26T09:48:04;101473.28;;;28.71;44.13
54248;BME280;40161;39.768;2.722;2023-06-26T09:50:32;101515.53;;;29.07;44.65
54248;BME280;40161;39.768;2.722;2023-06-26T09:53:07;101497.78;;;29.16;44.41
54248;BME280;40161;39.768;2.722;2023-06-26T09:55:35;101510.38;;;29.06;44.34
54248;BME280;40161;39.768;2.722;2023-06-26T09:58:03;101518.72;;;29.33;44.06
54248;BME280;40161;39.768;2.722;2023-06-26T10:00:30;101506.41;;;29.13;44.07
54248;BME280;40161;39.768;2.722;2023-06-26T10:02:56;101544.03;;;29.28;44.06
54248;BME280;40161;39.768;2.722;2023-06-26T10:05:21;101547.97;;;29.21;44.23
54248;BME280;40161;39.768;2.722;2023-06-26T10:07:47;101545.44;;;29.32;45.40
54248;BME280;40161;39.768;2.722;2023-06-26T10:10:14;101557.69;;;29.29;46.07
54248;BME280;40161;39.768;2.722;2023-06-26T10:12:40;101554.59;;;29.18;46.26
54248;BME280;40161;39.768;2.722;2023-06-26T10:15:08;101559.16;;;29.16;46.05
54248;BME280;40161;39.768;2.722;2023-06-26T10:17:38;101552.25;;;29.17;47.18
54248;BME280;40161;39.768;2.722;2023-06-26T10:20:07;101552.69;;;29.24;46.93
54248;BME280;40161;39.768;2.722;2023-06-26T10:22:39;101544.94;;;29.34;46.51
54248;BME280;40161;39.768;2.722;2023-06-26T10:25:07;101537.00;;;29.14;47.67
54248;BME280;40161;39.768;2.722;2023-06-26T10:27:38;101528.41;;;29.08;48.10
54248;BME280;40161;39.768;2.722;2023-06-26T10:30:10;101541.53;;;29.30;47.95
54248;BME280;40161;39.768;2.722;2023-06-26T10:32:39;101547.78;;;29.34;48.47
54248;BME280;40161;39.768;2.722;2023-06-26T10:35:06;101536.06;;;29.17;48.00
54248;BME280;40161;39.768;2.722;2023-06-26T10:37:46;101543.59;;;29.20;48.13
54248;BME280;40161;39.768;2.722;2023-06-26T10:40:13;101542.50;;;29.18;48.84
54248;BME280;40161;39.768;2.722;2023-06-26T10:42:39;101543.31;;;29.09;49.57
54248;BME280;40161;39.768;2.722;2023-06-26T10:45:20;101562.31;;;29.51;49.25
54248;BME280;40161;39.768;2.722;2023-06-26T10:47:52;101553.44;;;29.34;50.24
54248;BME280;40161;39.768;2.722;2023-06-26T10:53:09;101557.13;;;29.07;52.05
54248;BME280;40161;39.768;2.722;2023-06-26T10:55:36;101565.31;;;28.96;52.85
54248;BME280;40161;39.768;2.722;2023-06-26T10:58:02;101561.88;;;28.82;53.59
54248;BME280;40161;39.768;2.722;2023-06-26T11:00:28;101539.88;;;28.86;53.82
54248;BME280;40161;39.768;2.722;2023-06-26T11:02:57;101537.41;;;28.79;55.03
54248;BME280;40161;39.768;2.722;2023-06-26T11:05:28;101558.72;;;28.99;57.85
54248;BME280;40161;39.768;2.722;2023-06-26T11:08:11;101563.25;;;28.96;57.88
54248;BME280;40161;39.768;2.722;2023-06-26T11:10:49;101545.41;;;28.81;58.63
54248;BME280;40161;39.768;2.722;2023-06-26T11:13:17;101549.31;;;29.02;56.86
54248;BME280;40161;39.768;2.722;2023-06-26T11:15:44;101549.91;;;28.97;60.04
54248;BME280;40161;39.768;2.722;2023-06-26T11:18:10;101529.25;;;28.81;58.53
54248;BME280;40161;39.768;2.722;2023-06-26T11:20:36;101544.66;;;29.32;60.80
54248;BME280;40161;39.768;2.722;2023-06-26T11:23:03;101552.06;;;29.20;56.80
54248;BME280;40161;39.768;2.722;2023-06-26T11:25:34;101554.72;;;29.24;57.25
54248;BME280;40161;39.768;2.722;2023-06-26T11:28:01;101544.53;;;29.17;57.47
54248;BME280;40161;39.768;2.722;2023-06-26T11:30:26;101515.06;;;29.09;56.82
54248;BME280;40161;39.768;2.722;2023-06-26T11:32:52;101551.69;;;29.37;62.22
54248;BME280;40161;39.768;2.722;2023-06-26T11:35:24;101547.56;;;29.47;61.53
54248;BME280;40161;39.768;2.722;2023-06-26T11:37:57;101522.84;;;29.23;62.24
54248;BME280;40161;39.768;2.722;2023-06-26T11:40:25;101537.75;;;29.33;64.23
54248;BME280;40161;39.768;2.722;2023-06-26T11:43:00;101499.84;;;29.06;61.57
54248;BME280;40161;39.768;2.722;2023-06-26T11:45:33;101535.69;;;29.33;61.54
54248;BME280;40161;39.768;2.722;2023-06-26T11:47:59;101527.81;;;29.38;60.76
54248;BME280;40161;39.768;2.722;2023-06-26T11:50:26;101490.81;;;29.26;62.48
54248;BME280;40161;39.768;2.722;2023-06-26T11:52:55;101529.69;;;29.41;62.70
54248;BME280;40161;39.768;2.722;2023-06-26T11:55:23;101525.06;;;29.52;61.74
54248;BME280;40161;39.768;2.722;2023-06-26T11:57:50;101521.91;;;29.26;61.82
54248;BME280;40161;39.768;2.722;2023-06-26T12:00:19;101497.69;;;28.83;63.06
54248;BME280;40161;39.768;2.722;2023-06-26T12:02:45;101509.84;;;29.17;61.24
54248;BME280;40161;39.768;2.722;2023-06-26T12:05:16;101528.94;;;29.31;61.23
54248;BME280;40161;39.768;2.722;2023-06-26T12:07:47;101515.94;;;29.24;62.65
54248;BME280;40161;39.768;2.722;2023-06-26T12:10:14;101515.13;;;29.33;58.49
54248;BME280;40161;39.768;2.722;2023-06-26T12:12:40;101527.56;;;29.26;61.91
54248;BME280;40161;39.768;2.722;2023-06-26T12:15:08;101529.44;;;29.29;61.95
54248;BME280;40161;39.768;2.722;2023-06-26T12:17:38;101524.81;;;29.41;58.41
54248;BME280;40161;39.768;2.722;2023-06-26T12:20:18;101514.38;;;29.23;59.06
54248;BME280;40161;39.768;2.722;2023-06-26T12:22:49;101517.88;;;29.18;60.07
54248;BME280;40161;39.768;2.722;2023-06-26T12:25:14;101506.75;;;29.39;59.43
54248;BME280;40161;39.768;2.722;2023-06-26T12:27:40;101521.47;;;29.52;58.08
54248;BME280;40161;39.768;2.722;2023-06-26T12:30:06;101527.69;;;29.65;57.52
54248;BME280;40161;39.768;2.722;2023-06-26T12:32:34;101523.00;;;29.62;59.08
54248;BME280;40161;39.768;2.722;2023-06-26T12:35:00;101514.78;;;29.73;55.10
54248;BME280;40161;39.768;2.722;2023-06-26T12:37:26;101521.69;;;29.72;55.25
54248;BME280;40161;39.768;2.722;2023-06-26T12:39:54;101514.53;;;29.86;54.37
54248;BME280;40161;39.768;2.722;2023-06-26T12:42:23;101520.00;;;29.66;56.92
54248;BME280;40161;39.768;2.722;2023-06-26T12:44:49;101505.81;;;29.75;54.97
54248;BME280;40161;39.768;2.722;2023-06-26T12:47:16;101512.19;;;29.85;52.78
54248;BME280;40161;39.768;2.722;2023-06-26T12:49:50;101500.94;;;29.75;52.66
54248;BME280;40161;39.768;2.722;2023-06-26T12:52:16;101506.03;;;29.86;52.31
54248;BME280;40161;39.768;2.722;2023-06-26T12:54:43;101509.81;;;30.07;53.82
54248;BME280;40161;39.768;2.722;2023-06-26T12:57:09;101490.13;;;30.13;55.29
54248;BME280;40161;39.768;2.722;2023-06-26T12:59:38;101495.66;;;30.07;56.06
54248;BME280;40161;39.768;2.722;2023-06-26T13:02:04;101498.44;;;29.92;55.78